createdAt,value
2022-09-26T00:00:09.938Z,6.18
2022-09-26T00:02:39.123Z,6.15
2022-09-26T00:05:05.777Z,5.68
2022-09-26T00:07:32.041Z,6.30
2022-09-26T00:09:58.322Z,6.32
2022-09-26T00:12:24.575Z,7.13
2022-09-26T00:14:50.864Z,6.40
2022-09-26T00:17:17.147Z,7.07
2022-09-26T00:19:43.477Z,7.40
2022-09-26T00:22:09.754Z,7.40
2022-09-26T00:24:36.134Z,7.60
2022-09-26T00:27:02.387Z,7.50
2022-09-26T00:29:28.697Z,7.18
2022-09-26T00:31:54.975Z,7.55
2022-09-26T00:34:21.398Z,7.30
2022-09-26T00:36:48.229Z,6.78
2022-09-26T00:39:15.604Z,7.05
2022-09-26T00:41:42.045Z,6.82
2022-09-26T00:44:27.185Z,6.93
2022-09-26T00:46:53.588Z,6.30
2022-09-26T00:49:28.080Z,8.07
2022-09-26T00:51:57.274Z,7.57
2022-09-26T00:54:24.358Z,6.93
2022-09-26T00:56:52.402Z,6.28
2022-09-26T00:59:22.225Z,6.55
2022-09-26T01:01:49.806Z,6.53
2022-09-26T01:04:16.350Z,6.57
2022-09-26T01:06:44.194Z,5.65
2022-09-26T01:09:12.452Z,5.82
2022-09-26T01:11:40.956Z,6.35
2022-09-26T01:14:08.251Z,5.68
2022-09-26T01:16:35.040Z,5.28
2022-09-26T01:19:03.059Z,4.90
2022-09-26T01:21:29.329Z,4.55
2022-09-26T01:23:58.618Z,4.90
2022-09-26T01:26:24.956Z,6.05
2022-09-26T01:29:10.071Z,8.45
2022-09-26T01:31:36.395Z,7.82
2022-09-26T01:34:10.352Z,7.22
2022-09-26T01:36:42.788Z,6.80
2022-09-26T01:39:15.637Z,6.35
2022-09-26T01:42:01.064Z,6.00
2022-09-26T01:44:27.370Z,6.68
2022-09-26T01:47:00.728Z,6.20
2022-09-26T01:49:30.879Z,6.75
2022-09-26T01:52:07.279Z,6.80
2022-09-26T01:54:58.001Z,6.20
2022-09-26T01:57:28.265Z,6.68
2022-09-26T01:59:56.249Z,6.55
2022-09-26T02:02:26.723Z,6.78
2022-09-26T02:05:25.890Z,7.25
2022-09-26T02:07:55.886Z,7.13
2022-09-26T02:10:24.762Z,6.70
2022-09-26T02:12:54.944Z,6.70
2022-09-26T02:15:23.127Z,6.80
2022-09-26T02:17:53.118Z,6.75
2022-09-26T02:20:23.070Z,6.82
2022-09-26T02:22:49.392Z,6.55
2022-09-26T02:25:16.013Z,6.85
2022-09-26T02:27:42.294Z,6.32
2022-09-26T02:30:09.780Z,6.70
2022-09-26T02:32:37.180Z,6.82
2022-09-26T02:35:23.846Z,6.70
2022-09-26T02:37:52.400Z,6.45
2022-09-26T02:40:20.114Z,6.90
2022-09-26T02:43:06.724Z,6.93
2022-09-26T02:45:40.421Z,6.68
2022-09-26T02:48:25.233Z,7.00
2022-09-26T02:50:58.478Z,6.70
2022-09-26T02:55:59.172Z,6.82
2022-09-26T02:58:44.494Z,6.82
2022-09-26T03:01:32.542Z,7.00
2022-09-26T03:04:04.735Z,7.00
2022-09-26T03:06:34.334Z,7.10
2022-09-26T03:09:01.380Z,7.68
2022-09-26T03:11:28.783Z,8.20
2022-09-26T03:13:56.569Z,7.90
2022-09-26T03:16:26.455Z,8.55
2022-09-26T03:18:55.297Z,6.78
2022-09-26T03:21:23.170Z,7.35
2022-09-26T03:23:49.589Z,8.30
2022-09-26T03:26:18.868Z,7.30
2022-09-26T03:28:53.843Z,7.75
2022-09-26T03:31:22.136Z,7.50
2022-09-26T03:33:54.226Z,7.32
2022-09-26T03:36:23.900Z,7.90
2022-09-26T03:38:50.262Z,8.18
2022-09-26T03:41:38.272Z,7.65
2022-09-26T03:44:09.701Z,7.82
2022-09-26T03:47:11.614Z,8.73
2022-09-26T03:49:40.654Z,8.85
2022-09-26T03:52:10.549Z,9.23
2022-09-26T03:54:37.068Z,9.00
2022-09-26T03:57:03.431Z,10.23
2022-09-26T03:59:31.884Z,10.10
2022-09-26T04:01:58.970Z,9.88
2022-09-26T04:04:26.682Z,8.43
2022-09-26T04:06:53.416Z,7.60
2022-09-26T04:09:19.988Z,6.90
2022-09-26T04:11:50.276Z,7.18
2022-09-26T04:14:17.407Z,7.07
2022-09-26T04:16:47.240Z,7.15
2022-09-26T04:19:26.692Z,7.97
2022-09-26T04:21:53.171Z,7.65
2022-09-26T04:24:21.231Z,7.72
2022-09-26T04:26:48.049Z,7.47
2022-09-26T04:29:15.162Z,7.43
2022-09-26T04:32:14.046Z,6.97
2022-09-26T04:35:12.213Z,7.50
2022-09-26T04:37:38.585Z,7.25
2022-09-26T04:40:05.073Z,8.18
2022-09-26T04:42:36.787Z,8.90
2022-09-26T04:45:04.589Z,8.20
2022-09-26T04:47:32.456Z,9.82
2022-09-26T04:50:37.085Z,10.20
2022-09-26T04:53:06.335Z,9.32
2022-09-26T04:55:36.211Z,11.35
2022-09-26T04:58:02.511Z,10.48
2022-09-26T05:00:30.016Z,11.80
2022-09-26T05:03:01.982Z,12.05
2022-09-26T05:05:32.996Z,11.98
2022-09-26T05:07:59.258Z,10.77
2022-09-26T05:10:25.821Z,10.85
2022-09-26T05:13:00.883Z,11.60
2022-09-26T05:15:27.219Z,12.10
2022-09-26T05:17:57.574Z,12.40
2022-09-26T05:20:24.522Z,13.93
2022-09-26T05:22:58.786Z,12.77
2022-09-26T05:25:44.768Z,10.57
2022-09-26T05:28:11.120Z,9.18
2022-09-26T05:30:37.460Z,8.85
2022-09-26T05:33:04.615Z,9.95
2022-09-26T05:35:34.656Z,10.02
2022-09-26T05:38:02.194Z,10.55
2022-09-26T05:40:48.823Z,11.88
2022-09-26T05:43:15.501Z,12.68
2022-09-26T05:45:42.993Z,13.30
2022-09-26T05:48:11.350Z,14.73
2022-09-26T05:50:42.906Z,15.00
2022-09-26T05:53:10.001Z,14.98
2022-09-26T05:55:37.691Z,14.55
2022-09-26T05:58:40.395Z,17.05
2022-09-26T06:01:16.610Z,16.55
2022-09-26T06:03:44.353Z,16.58
2022-09-26T06:06:18.888Z,15.88
2022-09-26T06:08:46.304Z,16.90
2022-09-26T06:11:30.936Z,16.45
2022-09-26T06:13:59.187Z,16.23
2022-09-26T06:16:26.238Z,18.17
2022-09-26T06:18:54.950Z,18.45
2022-09-26T06:21:22.987Z,17.48
2022-09-26T06:23:53.399Z,18.42
2022-09-26T06:26:22.081Z,20.10
2022-09-26T06:28:49.911Z,19.42
2022-09-26T06:31:17.456Z,20.30
2022-09-26T06:34:02.369Z,20.67
2022-09-26T06:36:47.495Z,19.83
2022-09-26T06:39:14.713Z,20.73
2022-09-26T06:41:43.855Z,20.88
2022-09-26T06:44:30.406Z,20.48
2022-09-26T06:47:29.137Z,21.38
2022-09-26T06:50:26.750Z,21.27
2022-09-26T06:52:56.314Z,20.85
2022-09-26T06:55:24.122Z,20.50
2022-09-26T06:57:50.679Z,20.63
2022-09-26T07:00:18.289Z,20.90
2022-09-26T07:03:03.085Z,20.08
2022-09-26T07:05:51.572Z,19.85
2022-09-26T07:08:18.475Z,20.20
2022-09-26T07:10:45.112Z,20.00
2022-09-26T07:13:17.445Z,19.20
2022-09-26T07:15:44.553Z,18.85
2022-09-26T07:18:41.827Z,18.85
2022-09-26T07:21:26.629Z,18.85
2022-09-26T07:24:27.088Z,18.48
2022-09-26T07:26:53.597Z,18.90
2022-09-26T07:29:20.074Z,17.50
2022-09-26T07:31:46.580Z,16.98
2022-09-26T07:34:34.369Z,15.98
2022-09-26T07:37:01.333Z,16.33
2022-09-26T07:39:28.194Z,15.50
2022-09-26T07:41:54.502Z,13.55
2022-09-26T07:47:45.766Z,11.27
2022-09-26T07:50:32.976Z,11.00
2022-09-26T07:53:26.498Z,11.30
2022-09-26T07:56:16.681Z,10.65
2022-09-26T07:59:18.585Z,9.23
2022-09-26T08:01:55.649Z,9.73
2022-09-26T08:04:36.872Z,9.90
2022-09-26T08:07:03.770Z,8.23
2022-09-26T08:09:31.872Z,8.30
2022-09-26T08:12:18.418Z,7.45
2022-09-26T08:15:00.574Z,6.32
2022-09-26T08:17:36.149Z,6.32
2022-09-26T08:20:02.594Z,5.68
2022-09-26T08:22:28.977Z,5.55
2022-09-26T08:24:56.630Z,5.00
2022-09-26T08:27:38.460Z,5.22
2022-09-26T08:30:06.165Z,4.47
2022-09-26T08:32:33.363Z,4.95
2022-09-26T08:35:00.037Z,4.40
2022-09-26T08:37:32.457Z,4.30
2022-09-26T08:40:17.575Z,4.50
2022-09-26T08:43:07.333Z,3.70
2022-09-26T08:46:11.120Z,4.20
2022-09-26T08:48:56.668Z,4.13
2022-09-26T08:51:28.261Z,4.00
2022-09-26T08:54:01.102Z,3.88
2022-09-26T08:56:40.217Z,4.70
2022-09-26T08:59:11.709Z,4.38
2022-09-26T09:01:39.676Z,4.40
2022-09-26T09:04:28.057Z,3.78
2022-09-26T09:06:58.206Z,4.55
2022-09-26T09:09:24.992Z,4.20
2022-09-26T09:12:10.569Z,4.00
2022-09-26T09:15:02.334Z,4.40
2022-09-26T09:18:09.996Z,4.05
2022-09-26T09:21:11.787Z,5.18
2022-09-26T09:24:07.358Z,4.88
2022-09-26T09:29:58.681Z,3.83
2022-09-26T09:32:57.762Z,4.40
2022-09-26T09:35:49.394Z,4.57
2022-09-26T09:38:38.734Z,5.22
2022-09-26T09:41:13.349Z,3.90
2022-09-26T09:43:41.913Z,4.18
2022-09-26T09:46:18.394Z,3.30
2022-09-26T09:48:46.936Z,2.65
2022-09-26T09:51:21.854Z,2.50
2022-09-26T09:53:59.482Z,3.00
2022-09-26T09:56:25.845Z,2.55
2022-09-26T09:59:03.670Z,1.73
2022-09-26T10:01:36.111Z,1.90
2022-09-26T10:04:11.444Z,1.92
2022-09-26T10:06:46.528Z,1.85
2022-09-26T10:09:39.260Z,1.70
2022-09-26T10:12:36.591Z,1.40
2022-09-26T10:15:27.111Z,1.50
2022-09-26T10:18:25.358Z,1.73
2022-09-26T10:21:12.028Z,1.58
2022-09-26T10:23:44.058Z,1.75
2022-09-26T10:26:30.582Z,1.92
2022-09-26T10:28:57.843Z,1.98
2022-09-26T10:31:29.470Z,1.85
2022-09-26T10:34:27.820Z,1.75
2022-09-26T10:36:54.160Z,1.90
2022-09-26T10:39:41.196Z,2.30
2022-09-26T10:42:15.016Z,2.28
2022-09-26T10:44:43.063Z,1.85
2022-09-26T10:47:26.146Z,2.10
2022-09-26T10:50:11.475Z,2.55
2022-09-26T10:53:08.271Z,2.10
2022-09-26T10:55:40.046Z,2.63
2022-09-26T10:58:13.638Z,2.45
2022-09-26T11:00:43.516Z,2.70
2022-09-26T11:03:17.408Z,2.47
2022-09-26T11:06:23.909Z,2.38
2022-09-26T11:08:54.128Z,2.42
2022-09-26T11:11:42.037Z,2.58
2022-09-26T11:14:09.064Z,2.58
2022-09-26T11:16:49.049Z,2.28
2022-09-26T11:19:22.159Z,2.60
2022-09-26T11:21:52.429Z,2.85
2022-09-26T11:24:23.109Z,3.42
2022-09-26T11:27:05.499Z,2.95
2022-09-26T11:29:41.686Z,2.90
2022-09-26T11:32:23.787Z,3.03
2022-09-26T11:35:01.237Z,2.63
2022-09-26T11:37:43.276Z,3.08
2022-09-26T11:40:10.122Z,2.97
2022-09-26T11:42:54.655Z,2.90
2022-09-26T11:45:45.183Z,3.27
2022-09-26T11:48:32.719Z,3.03
2022-09-26T11:51:37.923Z,3.17
2022-09-26T11:54:23.744Z,3.40
2022-09-26T11:57:13.501Z,2.80
2022-09-26T11:59:55.174Z,3.22
2022-09-26T12:02:40.265Z,3.13
2022-09-26T12:05:07.992Z,3.05
2022-09-26T12:07:37.407Z,2.70
2022-09-26T12:10:06.665Z,2.17
2022-09-26T12:12:56.519Z,1.73
2022-09-26T12:15:23.495Z,1.80
2022-09-26T12:18:04.969Z,1.85
2022-09-26T12:20:37.864Z,1.90
2022-09-26T12:23:23.015Z,2.00
2022-09-26T12:25:55.970Z,1.67
2022-09-26T12:28:41.270Z,1.75
2022-09-26T12:31:41.015Z,1.70
2022-09-26T12:34:10.509Z,1.58
2022-09-26T12:36:47.624Z,1.58
2022-09-26T12:39:32.584Z,1.92
2022-09-26T12:42:25.472Z,1.77
2022-09-26T12:45:21.537Z,1.60
2022-09-26T12:48:06.627Z,1.80
2022-09-26T12:50:32.856Z,1.60
2022-09-26T12:53:10.898Z,1.80
2022-09-26T12:55:37.224Z,1.60
2022-09-26T12:58:22.312Z,2.10
2022-09-26T13:00:58.480Z,1.98
2022-09-26T13:03:35.388Z,1.80
2022-09-26T13:06:20.857Z,1.90
2022-09-26T13:09:06.146Z,1.92
2022-09-26T13:11:48.666Z,1.90
2022-09-26T13:14:14.981Z,1.88
2022-09-26T13:16:50.424Z,2.00
2022-09-26T13:19:16.679Z,1.88
2022-09-26T13:21:55.790Z,1.90
2022-09-26T13:24:24.779Z,1.92
2022-09-26T13:26:54.747Z,2.00
2022-09-26T13:29:26.428Z,1.92
2022-09-26T13:32:11.821Z,2.22
2022-09-26T13:34:54.512Z,1.90
2022-09-26T13:37:36.342Z,2.45
2022-09-26T13:40:09.665Z,2.25
2022-09-26T13:42:46.952Z,1.95
2022-09-26T13:45:21.331Z,2.72
2022-09-26T13:47:55.052Z,3.30
2022-09-26T13:50:24.008Z,2.88
2022-09-26T13:53:05.542Z,2.60
2022-09-26T13:55:32.186Z,2.90
2022-09-26T13:58:06.848Z,2.85
2022-09-26T14:00:35.489Z,3.05
2022-09-26T14:03:09.271Z,3.00
2022-09-26T14:05:41.769Z,2.83
2022-09-26T14:08:45.270Z,2.92
2022-09-26T14:11:15.283Z,2.92
2022-09-26T14:13:41.567Z,3.00
2022-09-26T14:16:26.773Z,3.17
2022-09-26T14:18:57.824Z,2.80
2022-09-26T14:21:30.272Z,2.83
2022-09-26T14:24:15.676Z,2.72
2022-09-26T14:26:43.109Z,2.92
2022-09-26T14:29:30.747Z,3.20
2022-09-26T14:32:12.445Z,3.00
2022-09-26T14:34:48.985Z,2.95
2022-09-26T14:37:24.481Z,2.60
2022-09-26T14:40:00.044Z,2.80
2022-09-26T14:42:32.013Z,2.42
2022-09-26T14:44:59.387Z,2.28
2022-09-26T14:47:27.271Z,2.30
2022-09-26T14:50:05.368Z,2.58
2022-09-26T14:52:32.341Z,2.20
2022-09-26T14:55:01.036Z,2.35
2022-09-26T14:57:30.646Z,2.28
2022-09-26T14:59:57.558Z,2.20
2022-09-26T15:02:38.740Z,2.40
2022-09-26T15:05:05.282Z,2.38
2022-09-26T15:07:35.910Z,1.83
2022-09-26T15:10:09.709Z,1.83
2022-09-26T15:13:05.658Z,1.90
2022-09-26T15:15:35.347Z,2.10
2022-09-26T15:18:08.120Z,1.88
2022-09-26T15:20:38.709Z,2.10
2022-09-26T15:23:15.595Z,1.95
2022-09-26T15:25:41.925Z,1.83
2022-09-26T15:28:10.002Z,2.00
2022-09-26T15:30:40.702Z,1.98
2022-09-26T15:33:14.408Z,1.90
2022-09-26T15:35:51.461Z,1.50
2022-09-26T15:38:18.035Z,1.75
2022-09-26T15:40:58.278Z,1.70
2022-09-26T15:43:25.637Z,2.00
2022-09-26T15:45:58.756Z,1.80
2022-09-26T15:48:25.289Z,2.13
2022-09-26T15:50:53.061Z,2.03
2022-09-26T15:53:22.510Z,2.00
2022-09-26T15:55:51.842Z,2.00
2022-09-26T15:58:22.844Z,1.98
2022-09-26T16:00:51.118Z,2.03
2022-09-26T16:03:20.602Z,2.00
2022-09-26T16:05:47.461Z,2.30
2022-09-26T16:08:24.682Z,2.10
2022-09-26T16:10:55.774Z,2.50
2022-09-26T16:13:25.437Z,1.98
2022-09-26T16:16:02.954Z,2.08
2022-09-26T16:18:32.804Z,1.90
2022-09-26T16:21:36.318Z,2.00
2022-09-26T16:24:22.333Z,2.00
2022-09-26T16:26:49.777Z,2.60
2022-09-26T16:29:34.521Z,2.28
2022-09-26T16:32:04.441Z,2.08
2022-09-26T16:34:31.000Z,2.55
2022-09-26T16:36:58.106Z,2.13
2022-09-26T16:39:26.575Z,2.03
2022-09-26T16:42:01.674Z,2.17
2022-09-26T16:44:35.536Z,2.20
2022-09-26T16:47:05.149Z,4.05
2022-09-26T16:49:34.352Z,3.30
2022-09-26T16:52:30.250Z,2.20
2022-09-26T16:54:57.941Z,2.08
2022-09-26T16:57:26.617Z,2.20
2022-09-26T16:59:53.405Z,2.47
2022-09-26T17:02:20.803Z,2.20
2022-09-26T17:04:48.455Z,2.38
2022-09-26T17:07:15.322Z,2.30
2022-09-26T17:09:42.597Z,2.47
2022-09-26T17:12:14.772Z,2.00
2022-09-26T17:14:41.617Z,2.53
2022-09-26T17:17:21.670Z,2.40
2022-09-26T17:19:49.058Z,2.25
2022-09-26T17:22:16.619Z,3.28
2022-09-26T17:24:43.423Z,3.30
2022-09-26T17:27:14.177Z,4.70
2022-09-26T17:29:45.873Z,2.92
2022-09-26T17:32:15.194Z,3.17
2022-09-26T17:34:41.648Z,3.00
2022-09-26T17:37:09.296Z,2.90
2022-09-26T17:39:35.627Z,3.00
2022-09-26T17:42:03.498Z,2.97
2022-09-26T17:44:29.828Z,3.13
2022-09-26T17:46:56.511Z,3.05
2022-09-26T17:49:25.365Z,2.90
2022-09-26T17:51:53.955Z,3.65
2022-09-26T17:54:21.486Z,3.60
2022-09-26T17:56:48.353Z,4.25
2022-09-26T17:59:25.630Z,3.72
2022-09-26T18:01:54.053Z,4.00
2022-09-26T18:04:21.471Z,4.20
2022-09-26T18:06:47.921Z,3.67
2022-09-26T18:09:16.653Z,3.50
2022-09-26T18:11:50.034Z,4.40
2022-09-26T18:14:17.064Z,3.90
2022-09-26T18:16:44.643Z,3.08
2022-09-26T18:19:11.561Z,3.10
2022-09-26T18:21:39.994Z,2.50
2022-09-26T18:24:10.850Z,2.70
2022-09-26T18:26:47.069Z,2.42
2022-09-26T18:29:15.150Z,2.42
2022-09-26T18:31:44.355Z,1.92
2022-09-26T18:34:16.516Z,2.03
2022-09-26T18:36:43.055Z,1.80
2022-09-26T18:39:10.490Z,1.52
2022-09-26T18:41:37.730Z,1.80
2022-09-26T18:44:04.384Z,1.58
2022-09-26T18:46:30.894Z,1.73
2022-09-26T18:48:58.750Z,1.77
2022-09-26T18:51:26.012Z,1.90
2022-09-26T18:53:52.458Z,1.88
2022-09-26T18:56:37.665Z,1.50
2022-09-26T18:59:04.371Z,1.88
2022-09-26T19:01:34.090Z,1.73
2022-09-26T19:04:01.867Z,1.90
2022-09-26T19:06:35.506Z,1.73
2022-09-26T19:09:03.632Z,2.05
2022-09-26T19:11:32.470Z,2.13
2022-09-26T19:14:00.893Z,2.13
2022-09-26T19:16:27.244Z,2.30
2022-09-26T19:18:53.605Z,2.25
2022-09-26T19:21:19.978Z,2.40
2022-09-26T19:23:47.507Z,2.20
2022-09-26T19:26:36.269Z,2.20
2022-09-26T19:29:05.393Z,2.58
2022-09-26T19:31:33.917Z,2.50
2022-09-26T19:34:00.385Z,2.38
2022-09-26T19:36:26.693Z,2.50
2022-09-26T19:38:53.053Z,2.60
2022-09-26T19:41:19.368Z,2.72
2022-09-26T19:43:45.729Z,2.65
2022-09-26T19:46:14.363Z,2.72
2022-09-26T19:48:43.802Z,2.50
2022-09-26T19:51:11.190Z,2.38
2022-09-26T19:53:38.040Z,2.90
2022-09-26T19:56:04.850Z,3.42
2022-09-26T19:58:31.201Z,2.75
2022-09-26T20:00:58.545Z,2.70
2022-09-26T20:03:39.982Z,3.10
2022-09-26T20:06:15.085Z,3.25
2022-09-26T20:08:41.616Z,2.80
2022-09-26T20:11:08.032Z,2.75
2022-09-26T20:13:52.948Z,3.00
2022-09-26T20:16:19.352Z,2.60
2022-09-26T20:18:48.580Z,2.85
2022-09-26T20:21:15.422Z,3.10
2022-09-26T20:23:43.242Z,2.58
2022-09-26T20:26:09.810Z,2.65
2022-09-26T20:28:36.952Z,2.78
2022-09-26T20:31:03.348Z,2.60
2022-09-26T20:33:29.720Z,2.72
2022-09-26T20:36:02.662Z,2.67
2022-09-26T20:38:33.069Z,2.63
2022-09-26T20:41:09.240Z,2.67
2022-09-26T20:43:38.667Z,2.85
2022-09-26T20:46:08.594Z,2.63
2022-09-26T20:48:35.957Z,2.70
2022-09-26T20:51:02.907Z,2.67
2022-09-26T20:53:29.255Z,2.42
2022-09-26T20:55:55.658Z,2.38
2022-09-26T20:58:22.245Z,2.40
2022-09-26T21:00:48.932Z,2.65
2022-09-26T21:03:17.180Z,2.35
2022-09-26T21:05:44.021Z,2.30
2022-09-26T21:08:25.001Z,2.47
2022-09-26T21:10:51.361Z,2.42
2022-09-26T21:13:17.662Z,2.42
2022-09-26T21:15:44.277Z,2.25
2022-09-26T21:18:21.212Z,2.50
2022-09-26T21:20:47.535Z,2.70
2022-09-26T21:23:20.246Z,2.30
2022-09-26T21:25:46.824Z,2.47
2022-09-26T21:28:26.212Z,2.22
2022-09-26T21:30:54.150Z,2.50
2022-09-26T21:33:21.819Z,2.80
2022-09-26T21:35:48.286Z,2.50
2022-09-26T21:38:14.682Z,2.47
2022-09-26T21:40:41.405Z,2.33
2022-09-26T21:43:10.891Z,2.70
2022-09-26T21:45:37.213Z,2.40
2022-09-26T21:48:03.609Z,2.20
2022-09-26T21:50:30.152Z,2.45
2022-09-26T21:52:59.174Z,2.42
2022-09-26T21:55:29.570Z,2.17
2022-09-26T21:57:59.311Z,2.42
2022-09-26T22:00:26.010Z,2.33
2022-09-26T22:02:53.124Z,2.58
2022-09-26T22:05:19.697Z,2.50
2022-09-26T22:07:45.988Z,2.65
2022-09-26T22:10:12.306Z,2.40
2022-09-26T22:12:38.630Z,2.72
2022-09-26T22:15:06.912Z,2.60
2022-09-26T22:17:33.382Z,2.90
2022-09-26T22:19:59.705Z,3.03
2022-09-26T22:22:26.031Z,3.30
2022-09-26T22:24:53.834Z,3.00
2022-09-26T22:27:20.892Z,3.42
2022-09-26T22:29:48.339Z,3.67
2022-09-26T22:32:14.698Z,3.03
2022-09-26T22:34:41.016Z,3.30
2022-09-26T22:37:07.401Z,3.00
2022-09-26T22:39:33.841Z,2.63
2022-09-26T22:42:00.241Z,3.00
2022-09-26T22:44:26.566Z,3.10
2022-09-26T22:46:52.877Z,3.25
2022-09-26T22:49:19.189Z,3.40
2022-09-26T22:51:45.526Z,3.67
2022-09-26T22:54:12.161Z,3.20
2022-09-26T22:56:38.489Z,3.50
2022-09-26T22:59:04.849Z,3.50
2022-09-26T23:01:31.297Z,3.58
2022-09-26T23:03:58.317Z,3.00
2022-09-26T23:06:24.745Z,3.08
2022-09-26T23:08:51.305Z,3.25
2022-09-26T23:11:18.168Z,3.25
2022-09-26T23:13:44.788Z,3.10
2022-09-26T23:16:16.989Z,2.80
2022-09-26T23:18:43.724Z,2.88
2022-09-26T23:21:10.025Z,2.83
2022-09-26T23:23:36.914Z,2.35
2022-09-26T23:26:04.328Z,2.70
2022-09-26T23:28:32.157Z,2.70
2022-09-26T23:31:08.158Z,3.03
2022-09-26T23:33:34.612Z,2.72
2022-09-26T23:36:01.363Z,3.03
2022-09-26T23:38:28.090Z,2.67
2022-09-26T23:40:54.877Z,3.10
2022-09-26T23:43:21.670Z,3.20
2022-09-26T23:45:48.412Z,2.80
2022-09-26T23:48:15.016Z,2.65
2022-09-26T23:50:43.496Z,3.22
2022-09-26T23:53:09.932Z,3.38
2022-09-26T23:55:36.280Z,3.10
2022-09-26T23:58:02.601Z,3.05
